Time;durP1;ratioP1;P1;durP2;ratioP2;P2;SDS_P1;SDS_P2;PMS_P1;PMS_P2;Temp;Humidity;BMP_temperature;BMP_pressure;BME280_temperature;BME280_humidity;BME280_pressure;Samples;Min_cycle;Max_cycle;Signal;HPM_P1;HPM_P2
2020/12/27 00:02:14;;;;;;;9.40;4.82;;;2.10;99.90;;;;;;5039518;28;20502;-69
2020/12/27 00:04:42;;;;;;;8.30;4.40;;;2.00;99.90;;;;;;5022413;28;20037;-69
2020/12/27 00:07:09;;;;;;;7.35;4.40;;;2.10;99.90;;;;;;5022017;28;20060;-69
2020/12/27 00:09:38;;;;;;;8.60;4.63;;;2.00;99.90;;;;;;5037293;28;20040;-69
2020/12/27 00:12:05;;;;;;;7.32;4.20;;;2.00;99.90;;;;;;5040751;28;20107;-70
2020/12/27 00:14:33;;;;;;;9.07;4.97;;;2.00;99.90;;;;;;5024095;28;20022;-70
2020/12/27 00:17:07;;;;;;;6.85;3.92;;;2.00;99.90;;;;;;5027336;28;20470;-69
2020/12/27 00:19:35;;;;;;;8.85;4.10;;;2.00;99.90;;;;;;5045645;28;20040;-69
2020/12/27 00:22:05;;;;;;;10.32;4.82;;;2.10;99.90;;;;;;5027843;28;20039;-69
2020/12/27 00:24:33;;;;;;;8.77;4.53;;;2.10;99.90;;;;;;5026024;28;20025;-69
2020/12/27 00:26:59;;;;;;;9.27;4.40;;;2.10;99.90;;;;;;5027935;28;20038;-70
2020/12/27 00:29:24;;;;;;;8.75;4.32;;;2.00;99.90;;;;;;5025457;28;20037;-69
2020/12/27 00:31:51;;;;;;;7.50;4.30;;;2.00;99.90;;;;;;5027509;28;20336;-70
2020/12/27 00:34:17;;;;;;;8.38;4.32;;;2.00;99.90;;;;;;5026721;28;20045;-70
2020/12/27 00:36:42;;;;;;;10.10;4.47;;;1.90;99.90;;;;;;5027026;28;20095;-71
2020/12/27 00:39:10;;;;;;;10.02;4.43;;;2.00;99.90;;;;;;5026413;28;20052;-71
2020/12/27 00:41:36;;;;;;;7.80;4.43;;;1.90;99.90;;;;;;5025121;28;20072;-71
2020/12/27 00:44:05;;;;;;;8.88;4.18;;;1.90;99.90;;;;;;5036784;28;20041;-71
2020/12/27 00:46:30;;;;;;;8.00;4.38;;;1.90;99.90;;;;;;5058041;28;20021;-70
2020/12/27 00:48:56;;;;;;;7.40;4.20;;;1.80;99.90;;;;;;5027440;28;20085;-70
2020/12/27 00:51:27;;;;;;;7.07;4.15;;;1.90;99.90;;;;;;5058776;28;20033;-71
2020/12/27 00:53:55;;;;;;;6.53;4.10;;;1.90;99.90;;;;;;5028024;28;20110;-70
2020/12/27 00:56:23;;;;;;;7.30;4.00;;;1.90;99.90;;;;;;5024799;28;20038;-70
2020/12/27 00:58:50;;;;;;;6.93;4.25;;;1.90;99.90;;;;;;5028126;28;20018;-71
2020/12/27 01:01:16;;;;;;;8.02;4.15;;;1.80;99.90;;;;;;5027732;28;20044;-71
2020/12/27 01:03:46;;;;;;;8.20;4.50;;;1.80;99.90;;;;;;5026540;28;20033;-71
2020/12/27 01:06:14;;;;;;;8.10;4.15;;;1.80;99.90;;;;;;5026224;28;20573;-71
2020/12/27 01:08:40;;;;;;;7.18;3.95;;;1.80;99.90;;;;;;5028486;28;20029;-70
2020/12/27 01:11:08;;;;;;;10.60;4.40;;;1.80;99.90;;;;;;5025943;28;20068;-71
2020/12/27 01:13:38;;;;;;;7.72;4.03;;;1.70;99.90;;;;;;5024616;28;20044;-71
2020/12/27 01:16:03;;;;;;;9.80;4.10;;;1.70;99.90;;;;;;5027946;28;20014;-70
2020/12/27 01:18:31;;;;;;;7.95;4.15;;;1.70;99.90;;;;;;5028307;28;20039;-71
2020/12/27 01:20:59;;;;;;;8.20;4.05;;;1.80;99.90;;;;;;5028476;28;20029;-70
2020/12/27 01:23:27;;;;;;;8.25;4.20;;;1.70;99.90;;;;;;5027954;28;20030;-71
2020/12/27 01:25:53;;;;;;;10.90;4.03;;;1.70;99.90;;;;;;5027929;28;20025;-71
2020/12/27 01:28:26;;;;;;;6.63;3.90;;;1.70;99.90;;;;;;5027258;28;20040;-71
2020/12/27 01:30:53;;;;;;;7.05;3.88;;;1.70;99.90;;;;;;5026835;28;20367;-71
2020/12/27 01:33:19;;;;;;;6.78;3.92;;;1.70;99.90;;;;;;5027197;28;20036;-71
2020/12/27 01:35:48;;;;;;;8.23;4.00;;;1.70;99.90;;;;;;5027966;28;20033;-71
2020/12/27 01:38:13;;;;;;;8.60;4.05;;;1.70;99.90;;;;;;5027834;28;20096;-71
2020/12/27 01:40:41;;;;;;;6.43;4.10;;;1.70;99.90;;;;;;5027750;28;20462;-71
2020/12/27 01:43:10;;;;;;;9.32;4.25;;;1.60;99.90;;;;;;5028569;28;20018;-70
2020/12/27 01:45:38;;;;;;;7.90;4.18;;;1.60;99.90;;;;;;5059860;28;20451;-71
2020/12/27 01:48:06;;;;;;;8.88;4.82;;;1.60;99.90;;;;;;5057557;28;20167;-71
2020/12/27 01:50:35;;;;;;;7.88;4.50;;;1.60;99.90;;;;;;5008079;28;20542;-70
2020/12/27 01:53:03;;;;;;;9.07;5.00;;;1.60;99.90;;;;;;5024636;28;20074;-71
2020/12/27 01:55:34;;;;;;;8.98;5.75;;;1.60;99.90;;;;;;5025534;28;20108;-71
2020/12/27 01:58:08;;;;;;;11.93;6.40;;;1.50;99.90;;;;;;5011725;28;20037;-71
2020/12/27 02:00:36;;;;;;;10.38;6.40;;;1.50;99.90;;;;;;5027356;28;20026;-71
2020/12/27 02:03:03;;;;;;;11.48;6.43;;;1.50;99.90;;;;;;5058620;28;20025;-71
2020/12/27 02:05:28;;;;;;;13.45;6.75;;;1.40;99.90;;;;;;5008747;28;20526;-71
2020/12/27 02:07:57;;;;;;;12.95;7.53;;;1.40;99.90;;;;;;5042902;28;20108;-70
2020/12/27 02:10:22;;;;;;;11.93;7.20;;;1.40;99.90;;;;;;5039486;28;20044;-70
2020/12/27 02:12:48;;;;;;;11.38;7.13;;;1.40;99.90;;;;;;5024198;28;20054;-71
2020/12/27 02:15:14;;;;;;;12.45;7.32;;;1.40;99.90;;;;;;5027003;28;20053;-71
2020/12/27 02:17:39;;;;;;;13.80;8.20;;;1.40;99.90;;;;;;5027421;28;20065;-71
2020/12/27 02:20:05;;;;;;;14.77;8.52;;;1.40;99.90;;;;;;5027278;28;20036;-71
2020/12/27 02:22:31;;;;;;;10.77;7.50;;;1.30;99.90;;;;;;5026635;28;20040;-71
2020/12/27 02:24:58;;;;;;;15.13;7.80;;;1.30;99.90;;;;;;5027376;28;20131;-71
2020/12/27 02:27:24;;;;;;;14.13;8.75;;;1.30;99.90;;;;;;5025315;28;20197;-70
2020/12/27 02:29:52;;;;;;;13.23;8.00;;;1.30;99.90;;;;;;5027781;28;20089;-71
2020/12/27 02:32:20;;;;;;;12.52;8.13;;;1.40;99.90;;;;;;5024026;28;20026;-71
2020/12/27 02:34:45;;;;;;;15.65;8.73;;;1.40;99.90;;;;;;5026207;28;20040;-71
2020/12/27 02:37:11;;;;;;;13.48;8.20;;;1.30;99.90;;;;;;5025503;28;20371;-70
2020/12/27 02:39:37;;;;;;;12.27;8.02;;;1.40;99.90;;;;;;5026247;28;20036;-71
2020/12/27 02:42:02;;;;;;;16.13;8.80;;;1.50;99.90;;;;;;5026744;28;20121;-71
2020/12/27 02:47:04;;;;;;;15.15;8.35;;;1.50;99.90;;;;;;5026152;28;20621;-71
2020/12/27 02:49:30;;;;;;;13.32;8.23;;;1.40;99.90;;;;;;5026223;28;20037;-71
2020/12/27 02:51:56;;;;;;;14.40;8.70;;;1.40;99.90;;;;;;5024789;28;20040;-70
2020/12/27 02:54:21;;;;;;;15.00;8.40;;;1.30;99.90;;;;;;5026582;28;20040;-71
2020/12/27 02:56:50;;;;;;;15.32;9.32;;;1.30;99.90;;;;;;5027457;28;20026;-71
2020/12/27 02:59:15;;;;;;;13.93;8.82;;;1.20;99.90;;;;;;5024865;28;20018;-71
2020/12/27 03:01:43;;;;;;;17.02;10.05;;;1.30;99.90;;;;;;5026105;28;20048;-71
2020/12/27 03:04:09;;;;;;;17.52;9.55;;;1.20;99.90;;;;;;5025737;28;20029;-71
2020/12/27 03:06:34;;;;;;;14.93;9.38;;;1.20;99.90;;;;;;5024955;28;20034;-71
2020/12/27 03:09:02;;;;;;;15.88;9.30;;;1.20;99.90;;;;;;5022373;28;20033;-71
2020/12/27 03:11:28;;;;;;;15.80;9.85;;;1.20;99.90;;;;;;5023899;28;20135;-71
2020/12/27 03:13:55;;;;;;;14.30;9.22;;;1.10;99.90;;;;;;4678185;28;10001357;-73
2020/12/27 03:16:23;;;;;;;17.42;9.65;;;1.10;99.90;;;;;;5025853;28;20109;-75
2020/12/27 03:18:51;;;;;;;13.20;8.55;;;1.10;99.90;;;;;;5022895;28;20028;-74
2020/12/27 03:21:21;;;;;;;14.68;9.23;;;1.10;99.90;;;;;;5010853;28;20621;-75
2020/12/27 03:23:47;;;;;;;16.08;8.88;;;1.10;99.90;;;;;;5025217;28;20056;-70
2020/12/27 03:26:13;;;;;;;13.18;8.45;;;1.10;99.90;;;;;;5024535;28;20562;-74
2020/12/27 03:28:38;;;;;;;13.35;8.60;;;1.20;99.90;;;;;;5024818;28;20060;-74
2020/12/27 03:31:04;;;;;;;14.52;9.32;;;1.20;99.90;;;;;;5037486;28;20029;-74
2020/12/27 03:33:30;;;;;;;15.93;8.65;;;1.10;99.90;;;;;;5024482;28;20089;-74
2020/12/27 03:35:58;;;;;;;14.80;9.18;;;1.20;99.90;;;;;;5027576;28;20498;-74
2020/12/27 03:38:26;;;;;;;12.10;8.13;;;1.20;99.90;;;;;;5043186;28;20518;-74
2020/12/27 03:40:54;;;;;;;16.27;9.23;;;1.20;99.90;;;;;;5028947;28;20593;-74
2020/12/27 03:43:19;;;;;;;15.63;8.90;;;1.20;99.90;;;;;;5028844;28;20493;-74
2020/12/27 03:45:50;;;;;;;14.63;8.27;;;1.10;99.90;;;;;;5028717;28;20022;-74
2020/12/27 03:48:18;;;;;;;14.05;8.48;;;1.10;99.90;;;;;;5027941;28;20022;-74
2020/12/27 03:50:43;;;;;;;14.68;9.27;;;1.10;99.90;;;;;;5027997;28;20033;-74
2020/12/27 03:53:11;;;;;;;15.18;8.55;;;1.10;99.90;;;;;;5061104;28;20029;-74
2020/12/27 03:55:37;;;;;;;14.75;8.50;;;1.10;99.90;;;;;;5027900;28;20018;-74
2020/12/27 03:58:03;;;;;;;14.25;9.40;;;1.00;99.90;;;;;;5028056;28;20036;-74
2020/12/27 04:00:31;;;;;;;12.85;8.07;;;1.00;99.90;;;;;;5026209;28;20047;-74
2020/12/27 04:03:00;;;;;;;12.10;7.57;;;0.90;99.90;;;;;;5059439;28;20041;-74
2020/12/27 04:05:27;;;;;;;14.63;7.78;;;1.00;99.90;;;;;;5028694;28;20104;-74
2020/12/27 04:07:58;;;;;;;15.02;8.55;;;1.00;99.90;;;;;;5028668;28;20606;-74
2020/12/27 04:10:23;;;;;;;12.43;8.02;;;1.00;99.90;;;;;;5058946;28;20034;-74
2020/12/27 04:12:49;;;;;;;14.07;8.27;;;1.00;99.90;;;;;;5027229;28;20042;-74
2020/12/27 04:15:17;;;;;;;13.40;7.65;;;1.00;99.90;;;;;;5027124;28;20159;-74
2020/12/27 04:17:47;;;;;;;10.98;7.25;;;1.00;99.90;;;;;;5060659;28;20026;-74
2020/12/27 04:20:13;;;;;;;12.52;7.72;;;1.00;99.90;;;;;;5060264;28;20025;-74
2020/12/27 04:22:40;;;;;;;13.20;7.15;;;1.00;99.90;;;;;;5026963;28;20040;-74
2020/12/27 04:25:10;;;;;;;11.57;7.13;;;1.00;99.90;;;;;;5027952;28;20034;-74
2020/12/27 04:27:36;;;;;;;12.82;7.88;;;1.00;99.90;;;;;;5026443;28;20048;-74
2020/12/27 04:30:04;;;;;;;13.93;7.60;;;0.90;99.90;;;;;;5028372;28;20018;-74
2020/12/27 04:32:32;;;;;;;13.80;7.97;;;0.90;99.90;;;;;;5027576;28;20044;-74
2020/12/27 04:34:58;;;;;;;12.18;7.10;;;0.90;99.90;;;;;;5058111;28;20348;-74
2020/12/27 04:37:25;;;;;;;11.88;7.75;;;0.90;99.90;;;;;;5028640;28;20040;-74
2020/12/27 04:39:54;;;;;;;14.23;7.47;;;0.90;99.90;;;;;;5030388;28;20716;-74
2020/12/27 04:42:23;;;;;;;13.20;8.05;;;0.90;99.90;;;;;;5029190;28;20071;-74
2020/12/27 04:44:54;;;;;;;12.45;8.00;;;0.90;99.90;;;;;;5028167;28;20136;-75
2020/12/27 04:47:19;;;;;;;13.65;7.90;;;0.90;99.90;;;;;;5058105;28;20029;-75
2020/12/27 04:49:45;;;;;;;13.55;8.30;;;0.90;99.90;;;;;;5029291;28;20627;-74
2020/12/27 04:52:13;;;;;;;14.10;7.97;;;0.90;99.90;;;;;;5061025;28;20048;-75
2020/12/27 04:54:41;;;;;;;16.90;8.65;;;0.80;99.90;;;;;;5029479;28;20503;-75
2020/12/27 04:57:09;;;;;;;14.32;8.00;;;0.80;99.90;;;;;;5025155;28;20083;-75
2020/12/27 04:59:37;;;;;;;14.50;8.88;;;0.80;99.90;;;;;;5040739;28;20358;-75
2020/12/27 05:02:03;;;;;;;14.98;8.40;;;0.80;99.90;;;;;;5041714;28;20025;-75
2020/12/27 05:04:30;;;;;;;13.98;8.45;;;0.80;99.90;;;;;;5027513;28;20043;-75
2020/12/27 05:07:01;;;;;;;13.65;8.02;;;0.70;99.90;;;;;;5059910;28;20525;-75
2020/12/27 05:09:29;;;;;;;14.07;8.05;;;0.80;99.90;;;;;;5026478;28;20032;-75
2020/12/27 05:11:58;;;;;;;13.10;8.60;;;0.70;99.90;;;;;;5025831;28;20046;-75
2020/12/27 05:14:24;;;;;;;14.85;8.48;;;0.70;99.90;;;;;;5039756;28;20025;-75
2020/12/27 05:16:52;;;;;;;15.38;8.98;;;0.80;99.90;;;;;;5026384;28;20104;-75
2020/12/27 05:19:20;;;;;;;13.93;8.13;;;0.70;99.90;;;;;;5025490;28;20033;-75
2020/12/27 05:21:51;;;;;;;14.18;8.80;;;0.70;99.90;;;;;;5057901;28;20030;-75
2020/12/27 05:24:17;;;;;;;14.05;8.48;;;0.70;99.90;;;;;;5039164;28;20061;-75
2020/12/27 05:26:43;;;;;;;16.45;8.50;;;0.70;99.90;;;;;;5041626;28;20029;-75
2020/12/27 05:29:14;;;;;;;14.50;8.68;;;0.70;99.90;;;;;;5025340;28;20426;-75
2020/12/27 05:31:44;;;;;;;13.07;7.93;;;0.70;99.90;;;;;;5024050;28;20036;-75
2020/12/27 05:34:16;;;;;;;14.20;8.23;;;0.80;99.90;;;;;;5028300;28;20461;-75
2020/12/27 05:36:42;;;;;;;13.93;7.65;;;0.80;99.90;;;;;;5010810;28;20473;-75
2020/12/27 05:39:13;;;;;;;14.52;8.18;;;0.80;99.90;;;;;;5028771;28;20049;-75
2020/12/27 05:41:43;;;;;;;15.05;7.68;;;0.80;99.90;;;;;;5027764;28;20044;-75
2020/12/27 05:44:09;;;;;;;13.43;8.13;;;0.90;99.90;;;;;;5026864;28;20080;-75
2020/12/27 05:46:34;;;;;;;12.27;8.38;;;0.90;99.90;;;;;;5006275;28;20037;-75
2020/12/27 05:49:03;;;;;;;13.95;8.35;;;0.90;99.90;;;;;;5045012;28;20095;-75
2020/12/27 05:51:30;;;;;;;12.60;7.82;;;0.90;99.90;;;;;;5035449;28;20030;-75
2020/12/27 05:53:56;;;;;;;12.90;7.57;;;0.90;99.90;;;;;;5027165;28;20033;-75
2020/12/27 05:56:24;;;;;;;14.38;7.82;;;0.80;99.90;;;;;;5026757;28;20053;-75
2020/12/27 05:58:50;;;;;;;15.07;8.50;;;0.90;99.90;;;;;;5045907;28;20033;-75
2020/12/27 06:01:23;;;;;;;14.05;8.10;;;0.80;99.90;;;;;;5046354;28;20030;-75
2020/12/27 06:04:03;;;;;;;13.43;7.97;;;0.90;99.90;;;;;;5044497;28;20077;-75
2020/12/27 06:06:47;;;;;;;14.65;7.90;;;0.90;99.90;;;;;;5014842;28;20469;-75
2020/12/27 06:09:24;;;;;;;15.88;8.23;;;0.90;99.90;;;;;;5014378;28;20110;-75
2020/12/27 06:11:54;;;;;;;13.18;7.95;;;0.80;99.90;;;;;;5009737;28;20037;-75
2020/12/27 06:14:36;;;;;;;14.50;8.40;;;0.80;99.90;;;;;;5045100;28;20037;-75
2020/12/27 06:17:14;;;;;;;13.65;8.15;;;0.80;99.90;;;;;;5014163;28;20418;-75
2020/12/27 06:19:57;;;;;;;12.00;7.97;;;0.80;99.90;;;;;;5012729;28;20038;-78
2020/12/27 06:22:26;;;;;;;;;;;0.80;99.90;;;;;;5044016;28;20387;-76
2020/12/27 06:24:52;;;;;;;14.25;7.88;;;0.80;99.90;;;;;;5045810;28;20657;-76
2020/12/27 06:27:17;;;;;;;14.52;7.85;;;0.90;99.90;;;;;;5048550;28;20044;-76
2020/12/27 06:29:51;;;;;;;14.02;7.97;;;0.80;99.90;;;;;;5026165;28;20116;-75
2020/12/27 06:32:20;;;;;;;13.23;7.72;;;0.80;99.90;;;;;;5024965;28;20021;-75
2020/12/27 06:34:48;;;;;;;15.15;8.00;;;0.90;99.90;;;;;;5010059;28;20025;-76
2020/12/27 06:37:19;;;;;;;14.45;8.00;;;0.90;99.90;;;;;;5058463;28;20022;-75
2020/12/27 06:39:49;;;;;;;16.50;8.02;;;1.00;99.90;;;;;;5023067;28;20026;-75
2020/12/27 06:42:20;;;;;;;14.23;7.93;;;1.00;99.90;;;;;;5013511;28;20037;-75
2020/12/27 06:44:48;;;;;;;13.40;8.27;;;1.00;99.90;;;;;;5044506;28;20056;-75
2020/12/27 06:47:17;;;;;;;12.73;8.23;;;1.00;99.90;;;;;;5012403;28;20583;-75
2020/12/27 06:49:42;;;;;;;12.48;7.78;;;0.90;99.90;;;;;;5044558;28;20037;-75
2020/12/27 06:52:23;;;;;;;14.05;7.80;;;0.90;99.90;;;;;;5046278;28;20030;-75
2020/12/27 06:54:53;;;;;;;12.95;7.40;;;0.90;99.90;;;;;;5012393;28;20032;-74
2020/12/27 06:57:41;;;;;;;14.00;7.90;;;0.90;99.90;;;;;;5031226;28;20463;-74
2020/12/27 07:00:28;;;;;;;12.32;7.50;;;0.90;99.90;;;;;;5012613;28;20044;-75
2020/12/27 07:03:11;;;;;;;15.00;7.82;;;0.90;99.90;;;;;;5017365;28;20033;-75
2020/12/27 07:05:38;;;;;;;15.93;7.93;;;0.90;99.90;;;;;;5026493;28;20047;-75
2020/12/27 07:08:09;;;;;;;11.25;7.35;;;0.90;99.90;;;;;;5017231;28;20128;-75
2020/12/27 07:10:36;;;;;;;14.73;7.40;;;0.90;99.90;;;;;;5030604;28;20091;-76
2020/12/27 07:13:07;;;;;;;12.63;6.80;;;0.80;99.90;;;;;;5047655;28;20455;-76
2020/12/27 07:15:36;;;;;;;11.43;7.22;;;0.80;99.90;;;;;;5030501;28;20025;-76
2020/12/27 07:18:08;;;;;;;12.02;7.70;;;0.90;99.90;;;;;;5031824;28;20029;-76
2020/12/27 07:20:37;;;;;;;12.43;7.40;;;0.80;99.90;;;;;;5030608;28;20037;-75
2020/12/27 07:23:32;;;;;;;14.60;7.80;;;0.90;99.90;;;;;;5048608;28;20439;-76
2020/12/27 07:26:08;;;;;;;11.32;7.63;;;0.90;99.90;;;;;;5009957;28;20049;-76
2020/12/27 07:28:34;;;;;;;15.20;8.48;;;0.90;99.90;;;;;;5052667;28;20056;-76
2020/12/27 07:31:03;;;;;;;14.77;7.95;;;0.90;99.90;;;;;;5041481;28;20045;-76
2020/12/27 07:33:33;;;;;;;13.20;7.88;;;0.80;99.90;;;;;;5021642;28;20029;-76
2020/12/27 07:36:15;;;;;;;15.25;8.50;;;0.80;99.90;;;;;;5030956;28;20816;-76
2020/12/27 07:38:53;;;;;;;15.32;8.15;;;0.80;99.90;;;;;;5047225;28;20030;-76
2020/12/27 07:41:34;;;;;;;12.32;7.32;;;0.80;99.90;;;;;;5016586;28;20087;-76
2020/12/27 07:44:04;;;;;;;13.63;8.38;;;0.80;99.90;;;;;;5046657;28;20057;-77
2020/12/27 07:46:30;;;;;;;15.45;8.10;;;0.70;99.90;;;;;;5030796;28;20037;-77
2020/12/27 07:48:56;;;;;;;13.38;7.65;;;0.70;99.90;;;;;;5030347;28;20594;-76
2020/12/27 07:51:25;;;;;;;15.55;8.07;;;0.80;99.90;;;;;;5014886;28;20034;-77
2020/12/27 07:53:57;;;;;;;12.95;7.80;;;0.80;99.90;;;;;;5047868;28;20029;-76
2020/12/27 07:56:28;;;;;;;13.77;7.20;;;0.80;99.90;;;;;;5016266;28;20399;-77
2020/12/27 07:59:01;;;;;;;13.63;7.85;;;0.80;99.90;;;;;;5016183;28;20073;-76
2020/12/27 08:01:27;;;;;;;11.95;7.10;;;0.80;99.90;;;;;;5048555;28;20117;-76
2020/12/27 08:04:11;;;;;;;11.90;7.10;;;0.90;99.90;;;;;;5047669;28;20041;-76
2020/12/27 08:06:40;;;;;;;10.80;6.63;;;0.90;99.90;;;;;;5047898;28;20037;-76
2020/12/27 08:09:08;;;;;;;13.75;6.78;;;0.90;99.90;;;;;;5047420;28;20029;-76
2020/12/27 08:11:38;;;;;;;12.30;6.75;;;0.80;99.90;;;;;;5015569;28;20389;-76
2020/12/27 08:14:10;;;;;;;12.65;7.25;;;0.90;99.90;;;;;;5013250;28;20025;-77
2020/12/27 08:16:36;;;;;;;13.25;7.00;;;0.90;99.90;;;;;;5045764;28;20415;-77
2020/12/27 08:19:06;;;;;;;12.18;6.75;;;0.90;99.90;;;;;;5013045;28;20033;-77
2020/12/27 08:21:32;;;;;;;10.90;6.63;;;0.90;99.90;;;;;;5015319;28;20323;-77
2020/12/27 08:24:08;;;;;;;11.73;6.32;;;1.00;99.90;;;;;;5016158;28;20037;-77
2020/12/27 08:26:40;;;;;;;12.85;6.57;;;1.00;99.90;;;;;;5015071;28;20413;-77
2020/12/27 08:29:24;;;;;;;12.07;6.20;;;1.00;99.90;;;;;;5029345;28;20052;-76
2020/12/27 08:31:53;;;;;;;10.05;5.45;;;0.90;99.90;;;;;;5028151;28;20053;-77
2020/12/27 08:34:20;;;;;;;13.52;6.50;;;0.90;99.90;;;;;;5013814;28;20447;-77
2020/12/27 08:36:55;;;;;;;10.93;6.57;;;1.00;99.90;;;;;;5013249;28;20025;-77
2020/12/27 08:39:35;;;;;;;9.88;5.60;;;0.90;99.90;;;;;;5053601;28;20018;-77
2020/12/27 08:42:26;;;;;;;9.93;5.53;;;0.90;99.90;;;;;;5026337;28;20029;-77
2020/12/27 08:45:26;;;;;;;10.38;5.57;;;0.90;99.90;;;;;;5013403;28;20126;-77
2020/12/27 08:48:19;;;;;;;12.27;5.97;;;0.90;99.90;;;;;;5003663;28;20041;-77
2020/12/27 08:50:47;;;;;;;9.25;5.45;;;0.90;99.90;;;;;;5027401;28;20045;-77
2020/12/27 08:53:12;;;;;;;10.57;5.63;;;0.90;99.90;;;;;;5030502;28;20084;-77
2020/12/27 08:55:38;;;;;;;10.65;5.97;;;0.90;99.90;;;;;;5014989;28;20033;-77
2020/12/27 08:58:15;;;;;;;9.73;5.50;;;0.90;99.90;;;;;;5044814;28;20486;-77
2020/12/27 09:00:47;;;;;;;11.55;5.97;;;0.90;99.90;;;;;;5032029;28;20034;-77
2020/12/27 09:03:13;;;;;;;9.63;4.93;;;0.90;99.90;;;;;;5043456;28;20032;-77
2020/12/27 09:05:44;;;;;;;10.63;5.18;;;0.90;99.90;;;;;;5044947;28;20025;-77
2020/12/27 09:08:20;;;;;;;9.50;5.32;;;0.90;99.90;;;;;;5033166;28;20431;-77
2020/12/27 09:10:47;;;;;;;10.02;5.60;;;0.90;99.90;;;;;;5057891;28;20021;-76
2020/12/27 09:13:17;;;;;;;8.60;5.30;;;0.90;99.90;;;;;;5008730;28;653875;-77
2020/12/27 09:15:49;;;;;;;8.18;4.95;;;0.90;99.90;;;;;;5016173;28;20371;-77
2020/12/27 09:18:16;;;;;;;9.32;4.68;;;0.90;99.90;;;;;;5015493;28;20109;-76
2020/12/27 09:20:45;;;;;;;7.82;4.75;;;0.90;99.90;;;;;;5046986;28;20072;-77
2020/12/27 09:23:16;;;;;;;8.13;4.78;;;1.00;99.90;;;;;;5045784;28;20029;-77
2020/12/27 09:25:42;;;;;;;9.27;5.05;;;0.90;99.90;;;;;;5045610;28;20037;-76
2020/12/27 09:28:15;;;;;;;7.35;4.13;;;1.00;99.90;;;;;;5046743;28;20044;-77
2020/12/27 09:30:48;;;;;;;8.63;4.45;;;0.90;99.90;;;;;;5044033;28;20068;-77
2020/12/27 09:33:19;;;;;;;8.25;4.85;;;0.90;99.90;;;;;;5013207;28;20044;-77
2020/12/27 09:35:53;;;;;;;8.23;4.60;;;1.00;99.90;;;;;;5015980;28;20022;-77
2020/12/27 09:38:26;;;;;;;7.68;4.50;;;1.00;99.90;;;;;;5045238;28;20029;-77
2020/12/27 09:41:07;;;;;;;7.70;4.28;;;1.00;99.90;;;;;;5029344;28;20354;-77
2020/12/27 09:43:56;;;;;;;7.50;4.22;;;1.00;99.90;;;;;;5026884;28;21939;-77
2020/12/27 09:46:51;;;;;;;7.50;4.53;;;1.10;99.90;;;;;;5024382;28;20025;-78
2020/12/27 09:49:20;;;;;;;6.78;4.13;;;1.00;99.90;;;;;;5056096;28;20026;-77
2020/12/27 09:51:46;;;;;;;8.23;4.28;;;1.00;99.90;;;;;;5014902;28;21822;-77
2020/12/27 09:54:12;;;;;;;7.07;3.85;;;0.90;99.90;;;;;;5046306;28;20017;-77
2020/12/27 09:56:43;;;;;;;7.32;3.88;;;1.00;99.90;;;;;;5013808;28;20043;-78
2020/12/27 09:59:10;;;;;;;6.55;3.08;;;1.10;99.90;;;;;;5028423;28;20032;-77
2020/12/27 10:01:36;;;;;;;7.68;3.60;;;1.10;99.90;;;;;;5013738;28;20085;-77
2020/12/27 10:04:06;;;;;;;6.95;3.85;;;1.10;99.90;;;;;;5014828;28;20029;-77
2020/12/27 10:06:36;;;;;;;8.63;4.05;;;1.00;99.90;;;;;;5012983;28;20034;-77
2020/12/27 10:09:02;;;;;;;7.70;4.32;;;1.10;99.90;;;;;;5013421;28;20037;-77
2020/12/27 10:11:33;;;;;;;6.40;3.90;;;1.10;99.90;;;;;;5013243;28;20026;-75
2020/12/27 10:14:01;;;;;;;7.53;3.90;;;1.10;99.90;;;;;;5013911;28;20052;-74
2020/12/27 10:16:27;;;;;;;6.53;3.78;;;1.10;99.90;;;;;;5012688;28;20022;-73
2020/12/27 10:18:57;;;;;;;7.10;3.90;;;1.10;99.90;;;;;;5014264;28;20048;-77
2020/12/27 10:21:29;;;;;;;7.20;3.70;;;1.20;99.90;;;;;;5014334;28;20795;-77
2020/12/27 10:23:57;;;;;;;;;;;1.20;99.90;;;;;;5050037;28;20084;-77
2020/12/27 10:26:23;;;;;;;7.32;3.65;;;1.10;99.90;;;;;;5026971;28;20306;-77
2020/12/27 10:28:48;;;;;;;7.38;3.30;;;1.10;99.90;;;;;;5022856;28;20048;-77
2020/12/27 10:31:14;;;;;;;5.90;3.45;;;1.20;99.90;;;;;;5024695;28;20647;-77
2020/12/27 10:33:40;;;;;;;6.25;3.72;;;1.20;99.90;;;;;;5022933;28;20364;-78
2020/12/27 10:36:05;;;;;;;7.32;3.60;;;1.20;99.90;;;;;;5024331;28;20039;-77
2020/12/27 10:38:31;;;;;;;6.00;3.35;;;1.20;99.90;;;;;;5057891;28;20099;-78
2020/12/27 10:41:02;;;;;;;5.82;3.38;;;1.20;99.90;;;;;;5023643;28;20017;-77
2020/12/27 10:43:30;;;;;;;7.20;3.42;;;1.20;99.90;;;;;;5009240;28;20029;-77
2020/12/27 10:46:03;;;;;;;7.65;3.42;;;1.30;99.90;;;;;;5025495;28;20029;-79
2020/12/27 10:48:35;;;;;;;5.75;3.50;;;1.30;99.90;;;;;;5055280;28;20065;-78
2020/12/27 10:51:02;;;;;;;6.43;3.40;;;1.30;99.90;;;;;;5055204;28;20025;-77
2020/12/27 10:53:28;;;;;;;6.65;3.22;;;1.30;99.90;;;;;;5024688;28;20034;-76
2020/12/27 10:55:53;;;;;;;7.88;3.60;;;1.30;99.90;;;;;;5024138;28;20022;-77
2020/12/27 10:58:19;;;;;;;6.60;3.30;;;1.30;99.90;;;;;;5025456;28;20471;-77
2020/12/27 11:00:45;;;;;;;7.20;3.25;;;1.30;99.90;;;;;;5056072;28;20033;-77
2020/12/27 11:03:11;;;;;;;6.95;3.05;;;1.30;99.90;;;;;;5022659;28;20033;-77
2020/12/27 11:05:39;;;;;;;6.22;3.40;;;1.30;99.90;;;;;;5057624;28;20116;-77
2020/12/27 11:08:07;;;;;;;7.90;3.55;;;1.30;99.90;;;;;;5023932;28;20123;-78
2020/12/27 11:10:35;;;;;;;5.82;3.72;;;1.40;99.90;;;;;;5025709;28;20106;-77
2020/12/27 11:13:06;;;;;;;6.13;3.40;;;1.40;99.90;;;;;;5023196;28;20038;-78
2020/12/27 11:15:33;;;;;;;7.85;5.30;;;1.40;99.90;;;;;;5036771;28;20634;-74
2020/12/27 11:18:02;;;;;;;6.38;3.47;;;1.40;99.90;;;;;;5020356;28;20037;-75
2020/12/27 11:20:30;;;;;;;7.35;3.40;;;1.40;99.90;;;;;;5023749;28;20116;-75
2020/12/27 11:22:59;;;;;;;6.65;3.53;;;1.40;99.90;;;;;;5024145;28;20095;-75
2020/12/27 11:25:25;;;;;;;9.55;3.50;;;1.40;99.90;;;;;;5005787;28;20419;-74
2020/12/27 11:27:51;;;;;;;6.63;3.40;;;1.40;99.90;;;;;;5022847;28;20068;-75
2020/12/27 11:30:17;;;;;;;7.22;3.65;;;1.40;99.90;;;;;;5005060;28;20076;-74
2020/12/27 11:32:43;;;;;;;5.75;3.35;;;1.30;99.90;;;;;;5055874;28;20037;-74
2020/12/27 11:35:11;;;;;;;7.05;3.40;;;1.40;99.90;;;;;;5023136;28;20030;-75
2020/12/27 11:37:38;;;;;;;7.15;3.40;;;1.40;99.90;;;;;;5055441;28;20080;-74
2020/12/27 11:40:04;;;;;;;6.20;3.58;;;1.40;99.90;;;;;;5022171;28;20404;-75
2020/12/27 11:42:30;;;;;;;6.60;3.13;;;1.40;99.90;;;;;;5024375;28;20072;-75
2020/12/27 11:44:58;;;;;;;6.40;3.33;;;1.50;99.90;;;;;;4675617;28;10000468;-74
2020/12/27 11:47:23;;;;;;;5.95;3.17;;;1.50;99.90;;;;;;5020795;28;20714;-74
2020/12/27 11:49:49;;;;;;;6.50;3.60;;;1.50;99.90;;;;;;4677200;28;10000525;-74
2020/12/27 11:52:15;;;;;;;6.20;3.17;;;1.40;99.90;;;;;;5053542;28;20032;-74
2020/12/27 11:54:41;;;;;;;8.02;3.42;;;1.50;99.90;;;;;;5021718;28;20026;-74
2020/12/27 11:57:08;;;;;;;5.65;3.17;;;1.50;99.90;;;;;;5056587;28;20121;-74
2020/12/27 11:59:34;;;;;;;6.88;3.30;;;1.50;99.90;;;;;;5039767;28;20025;-74
2020/12/27 12:02:00;;;;;;;7.28;3.40;;;1.50;99.90;;;;;;5022786;28;20033;-74
2020/12/27 12:04:26;;;;;;;5.88;3.55;;;1.50;99.90;;;;;;5024817;28;20029;-74
2020/12/27 12:06:51;;;;;;;7.93;3.30;;;1.50;99.90;;;;;;5023988;28;20034;-74
2020/12/27 12:09:17;;;;;;;5.65;3.17;;;1.40;99.90;;;;;;5023791;28;20041;-74
2020/12/27 12:11:47;;;;;;;6.25;3.80;;;1.40;99.90;;;;;;5026781;28;20423;-73
2020/12/27 12:14:13;;;;;;;6.35;3.60;;;1.40;99.90;;;;;;5026173;28;20414;-74
2020/12/27 12:16:39;;;;;;;6.38;3.42;;;1.40;99.90;;;;;;5028032;28;20026;-74
2020/12/27 12:19:07;;;;;;;7.55;3.97;;;1.50;99.90;;;;;;5026646;28;20069;-74
2020/12/27 12:21:32;;;;;;;6.85;3.88;;;1.50;99.90;;;;;;5026749;28;20026;-74
2020/12/27 12:24:00;;;;;;;6.78;3.88;;;1.40;99.90;;;;;;5027500;28;20041;-74
2020/12/27 12:26:27;;;;;;;6.75;3.80;;;1.40;99.90;;;;;;5060106;28;20108;-74
2020/12/27 12:28:56;;;;;;;6.30;3.38;;;1.50;99.90;;;;;;5027801;28;20033;-74
2020/12/27 12:31:24;;;;;;;6.32;3.50;;;1.50;99.90;;;;;;5025007;28;20030;-74
2020/12/27 12:33:50;;;;;;;7.15;3.75;;;1.50;99.90;;;;;;5056773;28;20044;-74
2020/12/27 12:36:16;;;;;;;6.25;3.83;;;1.50;99.90;;;;;;4708660;28;10000160;-74
2020/12/27 12:38:45;;;;;;;6.95;4.07;;;1.50;99.90;;;;;;5024217;28;20483;-74
2020/12/27 12:41:11;;;;;;;6.55;3.40;;;1.50;99.90;;;;;;5058011;28;20116;-74
2020/12/27 12:43:40;;;;;;;6.40;3.72;;;1.50;99.90;;;;;;5057292;28;20620;-75
2020/12/27 12:46:07;;;;;;;7.38;3.17;;;1.50;99.90;;;;;;5023332;28;20026;-75
2020/12/27 12:48:33;;;;;;;5.55;2.70;;;1.60;99.90;;;;;;5056596;28;20040;-74
2020/12/27 12:50:59;;;;;;;5.40;3.10;;;1.60;99.90;;;;;;5024186;28;20029;-73
2020/12/27 12:53:24;;;;;;;6.57;3.42;;;1.60;99.90;;;;;;4707765;28;10000261;-75
2020/12/27 12:55:51;;;;;;;7.07;4.03;;;1.60;99.90;;;;;;5026205;28;20040;-74
2020/12/27 12:58:20;;;;;;;5.22;3.10;;;1.60;99.90;;;;;;5022709;28;20026;-74
2020/12/27 13:00:45;;;;;;;5.80;3.20;;;1.60;99.90;;;;;;5055853;28;20085;-76
2020/12/27 13:03:13;;;;;;;5.55;2.78;;;1.70;99.90;;;;;;5056722;28;21180;-74